sensor_id;sensor_type;location;lat;lon;timestamp;pressure;altitude;pressure_sealevel;temperature;humidity
69306;BME280;56427;51.580;4.656;2023-03-22T00:01:10;100930.03;;;8.13;100.00
69306;BME280;56427;51.580;4.656;2023-03-22T00:03:35;100920.00;;;8.08;100.00
69306;BME280;56427;51.580;4.656;2023-03-22T00:06:01;100918.22;;;8.09;100.00
69306;BME280;56427;51.580;4.656;2023-03-22T00:08:26;100914.56;;;8.24;100.00
69306;BME280;56427;51.580;4.656;2023-03-22T00:10:52;100913.06;;;8.09;100.00
69306;BME280;56427;51.580;4.656;2023-03-22T00:13:17;100905.19;;;8.10;100.00
69306;BME280;56427;51.580;4.656;2023-03-22T00:15:43;100900.66;;;8.14;100.00
69306;BME280;56427;51.580;4.656;2023-03-22T00:18:14;100907.84;;;8.22;100.00
69306;BME280;56427;51.580;4.656;2023-03-22T00:20:46;100899.22;;;8.10;100.00
69306;BME280;56427;51.580;4.656;2023-03-22T00:23:12;100891.84;;;8.17;100.00
69306;BME280;56427;51.580;4.656;2023-03-22T00:25:37;100897.72;;;8.19;100.00
69306;BME280;56427;51.580;4.656;2023-03-22T00:28:03;100893.84;;;8.13;100.00
69306;BME280;56427;51.580;4.656;2023-03-22T00:30:28;100891.94;;;8.15;100.00
69306;BME280;56427;51.580;4.656;2023-03-22T00:32:54;100887.50;;;8.17;100.00
69306;BME280;56427;51.580;4.656;2023-03-22T00:35:19;100887.16;;;8.22;100.00
69306;BME280;56427;51.580;4.656;2023-03-22T00:37:45;100881.44;;;8.29;100.00
69306;BME280;56427;51.580;4.656;2023-03-22T00:40:11;100877.56;;;8.35;100.00
69306;BME280;56427;51.580;4.656;2023-03-22T00:42:39;100877.75;;;8.45;100.00
69306;BME280;56427;51.580;4.656;2023-03-22T00:45:07;100868.44;;;8.42;100.00
69306;BME280;56427;51.580;4.656;2023-03-22T00:47:33;100873.53;;;8.44;100.00
69306;BME280;56427;51.580;4.656;2023-03-22T00:49:59;100866.47;;;8.46;100.00
69306;BME280;56427;51.580;4.656;2023-03-22T00:52:24;100846.72;;;8.45;100.00
69306;BME280;56427;51.580;4.656;2023-03-22T00:54:50;100841.31;;;8.48;100.00
69306;BME280;56427;51.580;4.656;2023-03-22T00:57:16;100834.53;;;8.47;100.00
69306;BME280;56427;51.580;4.656;2023-03-22T00:59:42;100841.00;;;8.53;100.00
69306;BME280;56427;51.580;4.656;2023-03-22T01:02:09;100833.97;;;8.66;100.00
69306;BME280;56427;51.580;4.656;2023-03-22T01:04:38;100826.31;;;8.64;100.00
69306;BME280;56427;51.580;4.656;2023-03-22T01:07:04;100816.53;;;8.57;100.00
69306;BME280;56427;51.580;4.656;2023-03-22T01:09:32;100809.28;;;8.62;100.00
69306;BME280;56427;51.580;4.656;2023-03-22T01:11:59;100805.03;;;8.61;100.00
69306;BME280;56427;51.580;4.656;2023-03-22T01:14:26;100796.91;;;8.65;100.00
69306;BME280;56427;51.580;4.656;2023-03-22T01:16:52;100797.16;;;8.74;100.00
69306;BME280;56427;51.580;4.656;2023-03-22T01:19:22;100795.72;;;8.70;100.00
69306;BME280;56427;51.580;4.656;2023-03-22T01:21:48;100794.59;;;8.85;100.00
69306;BME280;56427;51.580;4.656;2023-03-22T01:24:13;100788.91;;;8.91;100.00
69306;BME280;56427;51.580;4.656;2023-03-22T01:26:39;100784.59;;;8.80;100.00
69306;BME280;56427;51.580;4.656;2023-03-22T01:29:05;100789.75;;;8.92;100.00
69306;BME280;56427;51.580;4.656;2023-03-22T01:31:30;100784.81;;;9.00;100.00
69306;BME280;56427;51.580;4.656;2023-03-22T01:33:55;100780.69;;;8.97;100.00
69306;BME280;56427;51.580;4.656;2023-03-22T01:36:21;100774.81;;;9.07;100.00
69306;BME280;56427;51.580;4.656;2023-03-22T01:38:46;100773.84;;;9.08;100.00
69306;BME280;56427;51.580;4.656;2023-03-22T01:41:11;100764.06;;;9.23;100.00
69306;BME280;56427;51.580;4.656;2023-03-22T01:43:37;100767.84;;;9.18;100.00
69306;BME280;56427;51.580;4.656;2023-03-22T01:46:02;100755.34;;;9.24;100.00
69306;BME280;56427;51.580;4.656;2023-03-22T01:48:30;100747.34;;;9.27;100.00
69306;BME280;56427;51.580;4.656;2023-03-22T01:51:03;100755.69;;;9.30;100.00
69306;BME280;56427;51.580;4.656;2023-03-22T01:53:32;100757.25;;;9.21;100.00
69306;BME280;56427;51.580;4.656;2023-03-22T01:55:59;100744.19;;;9.23;100.00
69306;BME280;56427;51.580;4.656;2023-03-22T01:58:25;100759.72;;;9.23;100.00
69306;BME280;56427;51.580;4.656;2023-03-22T02:00:51;100747.72;;;9.22;100.00
69306;BME280;56427;51.580;4.656;2023-03-22T02:03:25;100743.72;;;9.29;100.00
69306;BME280;56427;51.580;4.656;2023-03-22T02:05:51;100746.28;;;9.29;100.00
69306;BME280;56427;51.580;4.656;2023-03-22T02:08:18;100734.16;;;9.30;100.00
69306;BME280;56427;51.580;4.656;2023-03-22T02:10:44;100733.06;;;9.32;100.00
69306;BME280;56427;51.580;4.656;2023-03-22T02:13:24;100713.22;;;9.21;100.00
69306;BME280;56427;51.580;4.656;2023-03-22T02:22:52;100717.19;;;9.26;100.00
69306;BME280;56427;51.580;4.656;2023-03-22T02:36:07;100714.25;;;9.30;100.00
69306;BME280;56427;51.580;4.656;2023-03-22T02:44:38;100712.69;;;9.39;100.00
69306;BME280;56427;51.580;4.656;2023-03-22T02:47:12;100702.47;;;9.37;100.00
69306;BME280;56427;51.580;4.656;2023-03-22T02:50:07;100697.09;;;9.50;100.00
69306;BME280;56427;51.580;4.656;2023-03-22T02:55:23;100695.16;;;9.43;100.00
69306;BME280;56427;51.580;4.656;2023-03-22T02:57:59;100691.59;;;9.44;100.00
69306;BME280;56427;51.580;4.656;2023-03-22T03:00:26;100687.06;;;9.36;100.00
69306;BME280;56427;51.580;4.656;2023-03-22T03:02:56;100680.34;;;9.33;100.00
69306;BME280;56427;51.580;4.656;2023-03-22T03:05:25;100682.00;;;9.34;100.00
69306;BME280;56427;51.580;4.656;2023-03-22T03:07:56;100691.91;;;9.29;100.00
69306;BME280;56427;51.580;4.656;2023-03-22T03:10:24;100672.38;;;9.25;100.00
69306;BME280;56427;51.580;4.656;2023-03-22T03:12:51;100687.66;;;9.28;100.00
69306;BME280;56427;51.580;4.656;2023-03-22T03:15:18;100694.53;;;9.18;100.00
69306;BME280;56427;51.580;4.656;2023-03-22T03:23:24;100684.28;;;9.16;100.00
69306;BME280;56427;51.580;4.656;2023-03-22T03:26:00;100677.78;;;9.22;100.00
69306;BME280;56427;51.580;4.656;2023-03-22T03:29:00;100680.50;;;9.20;100.00
69306;BME280;56427;51.580;4.656;2023-03-22T03:31:33;100677.44;;;9.27;100.00
69306;BME280;56427;51.580;4.656;2023-03-22T03:36:29;100674.84;;;9.27;100.00
69306;BME280;56427;51.580;4.656;2023-03-22T03:38:58;100676.28;;;9.19;100.00
69306;BME280;56427;51.580;4.656;2023-03-22T03:41:27;100668.63;;;9.18;100.00
69306;BME280;56427;51.580;4.656;2023-03-22T03:43:55;100675.31;;;9.20;100.00
69306;BME280;56427;51.580;4.656;2023-03-22T03:46:23;100667.66;;;9.19;100.00
69306;BME280;56427;51.580;4.656;2023-03-22T03:48:50;100669.34;;;9.09;100.00
69306;BME280;56427;51.580;4.656;2023-03-22T03:51:17;100672.41;;;9.14;100.00
69306;BME280;56427;51.580;4.656;2023-03-22T03:53:45;100670.16;;;9.09;100.00
69306;BME280;56427;51.580;4.656;2023-03-22T03:56:11;100664.53;;;9.04;100.00
69306;BME280;56427;51.580;4.656;2023-03-22T03:58:36;100659.59;;;9.01;100.00
69306;BME280;56427;51.580;4.656;2023-03-22T04:01:02;100664.31;;;9.07;100.00
69306;BME280;56427;51.580;4.656;2023-03-22T04:03:28;100667.91;;;9.16;100.00
69306;BME280;56427;51.580;4.656;2023-03-22T04:05:54;100667.44;;;9.22;100.00
69306;BME280;56427;51.580;4.656;2023-03-22T04:08:20;100658.75;;;9.12;100.00
69306;BME280;56427;51.580;4.656;2023-03-22T04:10:49;100662.53;;;9.08;100.00
69306;BME280;56427;51.580;4.656;2023-03-22T04:13:16;100663.94;;;9.12;100.00
69306;BME280;56427;51.580;4.656;2023-03-22T04:15:41;100661.34;;;9.12;100.00
69306;BME280;56427;51.580;4.656;2023-03-22T04:18:07;100658.88;;;9.10;100.00
69306;BME280;56427;51.580;4.656;2023-03-22T04:20:33;100656.63;;;9.17;100.00
69306;BME280;56427;51.580;4.656;2023-03-22T04:22:59;100646.06;;;9.09;100.00
69306;BME280;56427;51.580;4.656;2023-03-22T04:25:24;100648.84;;;9.17;100.00
69306;BME280;56427;51.580;4.656;2023-03-22T04:27:54;100659.66;;;9.22;100.00
69306;BME280;56427;51.580;4.656;2023-03-22T04:30:20;100657.06;;;9.22;100.00
69306;BME280;56427;51.580;4.656;2023-03-22T04:32:47;100655.44;;;9.21;100.00
69306;BME280;56427;51.580;4.656;2023-03-22T04:35:14;100648.72;;;9.18;100.00
69306;BME280;56427;51.580;4.656;2023-03-22T04:37:39;100654.84;;;9.17;100.00
69306;BME280;56427;51.580;4.656;2023-03-22T04:40:07;100645.25;;;9.08;100.00
69306;BME280;56427;51.580;4.656;2023-03-22T04:42:33;100640.75;;;9.10;100.00
69306;BME280;56427;51.580;4.656;2023-03-22T04:44:59;100642.31;;;9.01;100.00
69306;BME280;56427;51.580;4.656;2023-03-22T04:47:24;100647.72;;;9.10;100.00
69306;BME280;56427;51.580;4.656;2023-03-22T04:49:50;100635.13;;;9.05;100.00
69306;BME280;56427;51.580;4.656;2023-03-22T04:52:15;100646.19;;;9.07;100.00
69306;BME280;56427;51.580;4.656;2023-03-22T04:54:41;100641.56;;;9.11;100.00
69306;BME280;56427;51.580;4.656;2023-03-22T04:57:06;100638.97;;;9.11;100.00
69306;BME280;56427;51.580;4.656;2023-03-22T04:59:32;100641.69;;;9.09;100.00
69306;BME280;56427;51.580;4.656;2023-03-22T05:01:57;100642.22;;;9.03;100.00
69306;BME280;56427;51.580;4.656;2023-03-22T05:04:23;100638.66;;;9.04;100.00
69306;BME280;56427;51.580;4.656;2023-03-22T05:06:49;100631.25;;;8.99;100.00
69306;BME280;56427;51.580;4.656;2023-03-22T05:09:15;100633.38;;;8.94;100.00
69306;BME280;56427;51.580;4.656;2023-03-22T05:11:40;100634.44;;;9.03;100.00
69306;BME280;56427;51.580;4.656;2023-03-22T05:14:07;100627.72;;;9.00;100.00
69306;BME280;56427;51.580;4.656;2023-03-22T05:16:33;100627.50;;;8.92;100.00
69306;BME280;56427;51.580;4.656;2023-03-22T05:18:58;100623.88;;;8.95;100.00
69306;BME280;56427;51.580;4.656;2023-03-22T05:21:27;100629.97;;;9.05;100.00
69306;BME280;56427;51.580;4.656;2023-03-22T05:23:55;100621.50;;;9.03;100.00
69306;BME280;56427;51.580;4.656;2023-03-22T05:26:21;100633.13;;;9.09;100.00
69306;BME280;56427;51.580;4.656;2023-03-22T05:28:49;100634.31;;;9.05;100.00
69306;BME280;56427;51.580;4.656;2023-03-22T05:31:15;100627.50;;;9.03;100.00
69306;BME280;56427;51.580;4.656;2023-03-22T05:33:41;100616.31;;;9.03;100.00
69306;BME280;56427;51.580;4.656;2023-03-22T05:36:07;100627.50;;;9.03;100.00
69306;BME280;56427;51.580;4.656;2023-03-22T05:38:33;100614.66;;;9.02;100.00
69306;BME280;56427;51.580;4.656;2023-03-22T05:40:58;100619.41;;;8.97;100.00
69306;BME280;56427;51.580;4.656;2023-03-22T05:43:24;100625.38;;;8.97;100.00
69306;BME280;56427;51.580;4.656;2023-03-22T05:45:50;100626.69;;;9.03;100.00
69306;BME280;56427;51.580;4.656;2023-03-22T05:48:16;100617.38;;;9.00;100.00
69306;BME280;56427;51.580;4.656;2023-03-22T05:50:41;100622.75;;;9.09;100.00
69306;BME280;56427;51.580;4.656;2023-03-22T05:53:07;100621.63;;;9.01;100.00
69306;BME280;56427;51.580;4.656;2023-03-22T05:55:32;100612.06;;;9.02;100.00
69306;BME280;56427;51.580;4.656;2023-03-22T05:57:59;100618.72;;;9.16;100.00
69306;BME280;56427;51.580;4.656;2023-03-22T06:00:26;100620.97;;;9.09;100.00
69306;BME280;56427;51.580;4.656;2023-03-22T06:02:52;100608.88;;;9.10;100.00
69306;BME280;56427;51.580;4.656;2023-03-22T06:05:21;100619.34;;;9.08;100.00
69306;BME280;56427;51.580;4.656;2023-03-22T06:07:47;100609.00;;;9.08;100.00
69306;BME280;56427;51.580;4.656;2023-03-22T06:10:13;100612.59;;;9.17;100.00
69306;BME280;56427;51.580;4.656;2023-03-22T06:12:39;100603.59;;;9.32;100.00
69306;BME280;56427;51.580;4.656;2023-03-22T06:15:05;100618.19;;;9.33;100.00
69306;BME280;56427;51.580;4.656;2023-03-22T06:17:36;100608.72;;;9.44;100.00
69306;BME280;56427;51.580;4.656;2023-03-22T06:20:03;100607.66;;;9.46;100.00
69306;BME280;56427;51.580;4.656;2023-03-22T06:22:36;100617.19;;;9.46;100.00
69306;BME280;56427;51.580;4.656;2023-03-22T06:25:03;100616.03;;;9.38;100.00
69306;BME280;56427;51.580;4.656;2023-03-22T06:27:29;100618.63;;;9.38;100.00
69306;BME280;56427;51.580;4.656;2023-03-22T06:29:54;100622.56;;;9.33;100.00
69306;BME280;56427;51.580;4.656;2023-03-22T06:32:20;100615.22;;;9.38;100.00
69306;BME280;56427;51.580;4.656;2023-03-22T06:34:54;100614.25;;;9.39;100.00
69306;BME280;56427;51.580;4.656;2023-03-22T06:37:21;100618.75;;;9.37;100.00
69306;BME280;56427;51.580;4.656;2023-03-22T06:39:47;100622.03;;;9.39;100.00
69306;BME280;56427;51.580;4.656;2023-03-22T06:42:13;100628.88;;;9.40;100.00
69306;BME280;56427;51.580;4.656;2023-03-22T06:44:38;100626.53;;;9.37;100.00
69306;BME280;56427;51.580;4.656;2023-03-22T06:47:08;100617.81;;;9.38;100.00
69306;BME280;56427;51.580;4.656;2023-03-22T06:49:34;100621.66;;;9.44;100.00
69306;BME280;56427;51.580;4.656;2023-03-22T06:51:59;100613.09;;;9.43;100.00
69306;BME280;56427;51.580;4.656;2023-03-22T06:54:25;100614.09;;;9.52;100.00
69306;BME280;56427;51.580;4.656;2023-03-22T06:56:50;100625.28;;;9.52;100.00
69306;BME280;56427;51.580;4.656;2023-03-22T06:59:16;100627.78;;;9.64;100.00
69306;BME280;56427;51.580;4.656;2023-03-22T07:01:41;100623.44;;;9.64;100.00
69306;BME280;56427;51.580;4.656;2023-03-22T07:04:06;100628.44;;;9.56;100.00
69306;BME280;56427;51.580;4.656;2023-03-22T07:06:32;100628.19;;;9.59;100.00
69306;BME280;56427;51.580;4.656;2023-03-22T07:08:57;100622.47;;;9.65;100.00
69306;BME280;56427;51.580;4.656;2023-03-22T07:11:23;100618.59;;;9.71;100.00
69306;BME280;56427;51.580;4.656;2023-03-22T07:13:51;100630.75;;;10.01;100.00
69306;BME280;56427;51.580;4.656;2023-03-22T07:16:17;100623.56;;;10.14;100.00
69306;BME280;56427;51.580;4.656;2023-03-22T07:18:42;100609.44;;;10.28;100.00
69306;BME280;56427;51.580;4.656;2023-03-22T07:21:08;100610.78;;;10.23;100.00
69306;BME280;56427;51.580;4.656;2023-03-22T07:23:33;100614.47;;;10.51;100.00
69306;BME280;56427;51.580;4.656;2023-03-22T07:25:59;100624.72;;;10.22;100.00
69306;BME280;56427;51.580;4.656;2023-03-22T07:28:25;100615.22;;;10.11;100.00
69306;BME280;56427;51.580;4.656;2023-03-22T07:31:01;100611.97;;;10.09;100.00
69306;BME280;56427;51.580;4.656;2023-03-22T07:33:27;100606.97;;;9.96;100.00
69306;BME280;56427;51.580;4.656;2023-03-22T07:35:52;100609.66;;;10.16;100.00
69306;BME280;56427;51.580;4.656;2023-03-22T07:38:18;100608.69;;;10.07;100.00
69306;BME280;56427;51.580;4.656;2023-03-22T07:40:43;100609.63;;;10.06;100.00
69306;BME280;56427;51.580;4.656;2023-03-22T07:43:08;100612.63;;;10.11;100.00
69306;BME280;56427;51.580;4.656;2023-03-22T07:45:36;100615.16;;;10.22;100.00
69306;BME280;56427;51.580;4.656;2023-03-22T07:48:01;100624.56;;;10.23;100.00
69306;BME280;56427;51.580;4.656;2023-03-22T07:50:27;100624.66;;;10.33;100.00
69306;BME280;56427;51.580;4.656;2023-03-22T07:52:52;100621.38;;;10.41;100.00
69306;BME280;56427;51.580;4.656;2023-03-22T07:55:17;100623.53;;;10.36;100.00
69306;BME280;56427;51.580;4.656;2023-03-22T07:57:43;100623.97;;;10.41;100.00
69306;BME280;56427;51.580;4.656;2023-03-22T08:00:09;100635.44;;;10.38;100.00
69306;BME280;56427;51.580;4.656;2023-03-22T08:02:35;100624.53;;;10.35;100.00
69306;BME280;56427;51.580;4.656;2023-03-22T08:05:01;100616.13;;;10.31;100.00
69306;BME280;56427;51.580;4.656;2023-03-22T08:07:27;100625.00;;;10.59;100.00
69306;BME280;56427;51.580;4.656;2023-03-22T08:09:54;100618.56;;;10.54;100.00
69306;BME280;56427;51.580;4.656;2023-03-22T08:12:19;100618.28;;;10.57;100.00
69306;BME280;56427;51.580;4.656;2023-03-22T08:14:44;100622.50;;;10.48;100.00
69306;BME280;56427;51.580;4.656;2023-03-22T08:17:14;100631.41;;;10.55;100.00
69306;BME280;56427;51.580;4.656;2023-03-22T08:19:40;100626.44;;;10.42;100.00
69306;BME280;56427;51.580;4.656;2023-03-22T08:22:05;100625.09;;;10.48;100.00
69306;BME280;56427;51.580;4.656;2023-03-22T08:24:31;100627.00;;;10.56;100.00
69306;BME280;56427;51.580;4.656;2023-03-22T08:26:56;100635.66;;;10.56;100.00
69306;BME280;56427;51.580;4.656;2023-03-22T08:29:22;100635.53;;;10.67;100.00
69306;BME280;56427;51.580;4.656;2023-03-22T08:31:48;100627.72;;;10.58;100.00
69306;BME280;56427;51.580;4.656;2023-03-22T08:34:13;100617.19;;;10.49;100.00
69306;BME280;56427;51.580;4.656;2023-03-22T08:36:38;100620.22;;;10.64;100.00
69306;BME280;56427;51.580;4.656;2023-03-22T08:39:05;100621.97;;;10.54;100.00
69306;BME280;56427;51.580;4.656;2023-03-22T08:41:30;100618.41;;;10.55;100.00
69306;BME280;56427;51.580;4.656;2023-03-22T08:43:55;100620.44;;;10.42;100.00
69306;BME280;56427;51.580;4.656;2023-03-22T08:46:21;100619.47;;;10.33;100.00
69306;BME280;56427;51.580;4.656;2023-03-22T08:48:47;100610.88;;;10.42;100.00
69306;BME280;56427;51.580;4.656;2023-03-22T08:51:19;100623.19;;;10.50;100.00
69306;BME280;56427;51.580;4.656;2023-03-22T08:53:48;100611.75;;;10.53;100.00
69306;BME280;56427;51.580;4.656;2023-03-22T08:56:13;100616.94;;;10.53;100.00
69306;BME280;56427;51.580;4.656;2023-03-22T08:58:41;100615.53;;;10.48;100.00
69306;BME280;56427;51.580;4.656;2023-03-22T09:01:13;100621.16;;;10.63;100.00
69306;BME280;56427;51.580;4.656;2023-03-22T09:03:39;100620.72;;;10.48;100.00
69306;BME280;56427;51.580;4.656;2023-03-22T09:06:05;100615.56;;;10.58;100.00
69306;BME280;56427;51.580;4.656;2023-03-22T09:08:31;100612.66;;;10.42;100.00
69306;BME280;56427;51.580;4.656;2023-03-22T09:10:57;100621.38;;;10.41;100.00
69306;BME280;56427;51.580;4.656;2023-03-22T09:13:22;100620.75;;;10.58;100.00
69306;BME280;56427;51.580;4.656;2023-03-22T09:15:49;100618.00;;;10.50;100.00
69306;BME280;56427;51.580;4.656;2023-03-22T09:18:15;100609.50;;;10.38;100.00
69306;BME280;56427;51.580;4.656;2023-03-22T09:20:41;100616.59;;;10.46;100.00
69306;BME280;56427;51.580;4.656;2023-03-22T09:23:07;100622.16;;;10.31;100.00
69306;BME280;56427;51.580;4.656;2023-03-22T09:25:33;100607.44;;;10.32;100.00
69306;BME280;56427;51.580;4.656;2023-03-22T09:27:58;100614.19;;;10.23;100.00
69306;BME280;56427;51.580;4.656;2023-03-22T09:30:23;100608.31;;;10.21;100.00
69306;BME280;56427;51.580;4.656;2023-03-22T09:32:49;100604.34;;;10.17;100.00
69306;BME280;56427;51.580;4.656;2023-03-22T09:35:14;100605.59;;;10.23;100.00
69306;BME280;56427;51.580;4.656;2023-03-22T09:37:40;100604.91;;;10.21;100.00
69306;BME280;56427;51.580;4.656;2023-03-22T09:40:06;100608.69;;;10.07;100.00
69306;BME280;56427;51.580;4.656;2023-03-22T09:42:41;100608.69;;;10.07;100.00
69306;BME280;56427;51.580;4.656;2023-03-22T09:45:35;100595.59;;;10.08;100.00
69306;BME280;56427;51.580;4.656;2023-03-22T09:48:18;100608.56;;;10.08;100.00
69306;BME280;56427;51.580;4.656;2023-03-22T09:50:51;100613.06;;;10.16;100.00
69306;BME280;56427;51.580;4.656;2023-03-22T09:53:17;100611.13;;;10.08;100.00
69306;BME280;56427;51.580;4.656;2023-03-22T09:56:19;100609.88;;;10.03;100.00
69306;BME280;56427;51.580;4.656;2023-03-22T10:01:39;100608.13;;;10.13;100.00
69306;BME280;56427;51.580;4.656;2023-03-22T10:04:28;100621.44;;;10.29;100.00
69306;BME280;56427;51.580;4.656;2023-03-22T10:09:40;100625.78;;;10.19;100.00
69306;BME280;56427;51.580;4.656;2023-03-22T10:12:16;100612.94;;;10.18;100.00
69306;BME280;56427;51.580;4.656;2023-03-22T10:14:55;100608.31;;;10.21;100.00
69306;BME280;56427;51.580;4.656;2023-03-22T10:17:25;100606.50;;;10.12;100.00
69306;BME280;56427;51.580;4.656;2023-03-22T10:22:35;100604.25;;;10.28;100.00
69306;BME280;56427;51.580;4.656;2023-03-22T10:25:05;100612.69;;;10.21;100.00
69306;BME280;56427;51.580;4.656;2023-03-22T10:27:32;100611.00;;;10.10;100.00
69306;BME280;56427;51.580;4.656;2023-03-22T10:32:50;100601.44;;;10.10;100.00
69306;BME280;56427;51.580;4.656;2023-03-22T10:35:16;100598.09;;;10.20;100.00
69306;BME280;56427;51.580;4.656;2023-03-22T10:37:44;100597.00;;;10.22;100.00
69306;BME280;56427;51.580;4.656;2023-03-22T10:40:31;100591.91;;;10.11;100.00
69306;BME280;56427;51.580;4.656;2023-03-22T10:45:38;100598.34;;;10.57;100.00
69306;BME280;56427;51.580;4.656;2023-03-22T10:48:08;100599.19;;;10.67;100.00
69306;BME280;56427;51.580;4.656;2023-03-22T10:50:37;100593.88;;;10.69;100.00
69306;BME280;56427;51.580;4.656;2023-03-22T10:55:44;100591.81;;;10.63;100.00
69306;BME280;56427;51.580;4.656;2023-03-22T10:58:18;100589.75;;;10.66;100.00
69306;BME280;56427;51.580;4.656;2023-03-22T11:00:50;100597.81;;;10.63;100.00
69306;BME280;56427;51.580;4.656;2023-03-22T11:03:29;100582.50;;;10.60;100.00
69306;BME280;56427;51.580;4.656;2023-03-22T11:06:16;100582.50;;;10.50;100.00
69306;BME280;56427;51.580;4.656;2023-03-22T11:08:50;100581.31;;;10.64;100.00
69306;BME280;56427;51.580;4.656;2023-03-22T11:11:22;100588.66;;;10.59;100.00
69306;BME280;56427;51.580;4.656;2023-03-22T11:14:11;100580.56;;;10.43;100.00
69306;BME280;56427;51.580;4.656;2023-03-22T11:19:50;100584.97;;;10.62;100.00
69306;BME280;56427;51.580;4.656;2023-03-22T11:22:38;100599.47;;;10.64;100.00
69306;BME280;56427;51.580;4.656;2023-03-22T11:25:16;100582.22;;;10.54;100.00
69306;BME280;56427;51.580;4.656;2023-03-22T11:27:55;100580.47;;;10.74;100.00
69306;BME280;56427;51.580;4.656;2023-03-22T11:30:27;100575.84;;;10.87;100.00
69306;BME280;56427;51.580;4.656;2023-03-22T11:35:25;100574.63;;;10.81;100.00
69306;BME280;56427;51.580;4.656;2023-03-22T11:37:54;100576.81;;;10.96;100.00
69306;BME280;56427;51.580;4.656;2023-03-22T11:40:26;100573.94;;;10.99;100.00
69306;BME280;56427;51.580;4.656;2023-03-22T11:43:20;100582.81;;;10.86;100.00
69306;BME280;56427;51.580;4.656;2023-03-22T11:45:49;100596.47;;;10.98;100.00
69306;BME280;56427;51.580;4.656;2023-03-22T11:48:20;100586.22;;;10.97;100.00
69306;BME280;56427;51.580;4.656;2023-03-22T11:50:48;100589.13;;;10.94;100.00
69306;BME280;56427;51.580;4.656;2023-03-22T11:53:19;100590.75;;;11.04;100.00
69306;BME280;56427;51.580;4.656;2023-03-22T11:55:48;100594.47;;;11.02;100.00
69306;BME280;56427;51.580;4.656;2023-03-22T12:01:03;100603.47;;;11.08;100.00
69306;BME280;56427;51.580;4.656;2023-03-22T12:03:35;100590.88;;;10.93;100.00
69306;BME280;56427;51.580;4.656;2023-03-22T12:06:03;100588.69;;;10.89;100.00
69306;BME280;56427;51.580;4.656;2023-03-22T12:08:39;100592.94;;;10.99;100.00
69306;BME280;56427;51.580;4.656;2023-03-22T12:11:11;100597.19;;;10.91;100.00
69306;BME280;56427;51.580;4.656;2023-03-22T12:13:51;100601.81;;;10.97;100.00
69306;BME280;56427;51.580;4.656;2023-03-22T12:16:22;100602.78;;;11.05;100.00
69306;BME280;56427;51.580;4.656;2023-03-22T12:21:31;100589.41;;;10.91;100.00
69306;BME280;56427;51.580;4.656;2023-03-22T12:24:01;100599.50;;;10.84;100.00
69306;BME280;56427;51.580;4.656;2023-03-22T12:26:28;100595.53;;;10.99;100.00
69306;BME280;56427;51.580;4.656;2023-03-22T12:31:29;100585.97;;;11.00;100.00
69306;BME280;56427;51.580;4.656;2023-03-22T12:33:59;100585.16;;;11.09;100.00
69306;BME280;56427;51.580;4.656;2023-03-22T12:36:39;100575.84;;;11.07;100.00
69306;BME280;56427;51.580;4.656;2023-03-22T12:39:08;100582.28;;;11.12;100.00
69306;BME280;56427;51.580;4.656;2023-03-22T12:41:39;100563.97;;;11.14;100.00
69306;BME280;56427;51.580;4.656;2023-03-22T12:44:26;100564.78;;;11.14;100.00
69306;BME280;56427;51.580;4.656;2023-03-22T12:49:47;100560.66;;;11.21;100.00
69306;BME280;56427;51.580;4.656;2023-03-22T12:52:38;100561.91;;;11.17;100.00
69306;BME280;56427;51.580;4.656;2023-03-22T12:55:07;100559.31;;;11.17;100.00
69306;BME280;56427;51.580;4.656;2023-03-22T12:57:35;100562.31;;;11.13;100.00
69306;BME280;56427;51.580;4.656;2023-03-22T13:00:06;100570.66;;;11.16;100.00
69306;BME280;56427;51.580;4.656;2023-03-22T13:02:39;100581.19;;;11.15;100.00
69306;BME280;56427;51.580;4.656;2023-03-22T13:05:06;100570.50;;;11.18;100.00
69306;BME280;56427;51.580;4.656;2023-03-22T13:13:31;100571.88;;;11.32;100.00
69306;BME280;56427;51.580;4.656;2023-03-22T13:26:49;100550.69;;;11.27;100.00
69306;BME280;56427;51.580;4.656;2023-03-22T13:31:53;100566.81;;;11.40;100.00
69306;BME280;56427;51.580;4.656;2023-03-22T13:34:37;100563.38;;;11.30;100.00
69306;BME280;56427;51.580;4.656;2023-03-22T13:37:20;100562.56;;;11.29;100.00
69306;BME280;56427;51.580;4.656;2023-03-22T13:39:50;100562.84;;;11.36;100.00
69306;BME280;56427;51.580;4.656;2023-03-22T13:42:20;100554.25;;;11.26;100.00
69306;BME280;56427;51.580;4.656;2023-03-22T13:44:54;100557.25;;;11.21;100.00
69306;BME280;56427;51.580;4.656;2023-03-22T13:47:36;100557.66;;;11.16;100.00
69306;BME280;56427;51.580;4.656;2023-03-22T13:50:08;100543.59;;;11.09;100.00
69306;BME280;56427;51.580;4.656;2023-03-22T13:52:39;100560.97;;;11.18;100.00
69306;BME280;56427;51.580;4.656;2023-03-22T13:57:58;100557.41;;;11.10;100.00
69306;BME280;56427;51.580;4.656;2023-03-22T14:03:15;100550.84;;;11.15;100.00
69306;BME280;56427;51.580;4.656;2023-03-22T14:05:43;100548.53;;;11.12;100.00
69306;BME280;56427;51.580;4.656;2023-03-22T14:08:20;100547.41;;;11.15;100.00
69306;BME280;56427;51.580;4.656;2023-03-22T14:11:15;100551.25;;;11.11;100.00
69306;BME280;56427;51.580;4.656;2023-03-22T14:13:50;100538.69;;;11.06;100.00
69306;BME280;56427;51.580;4.656;2023-03-22T14:16:40;100538.66;;;11.16;100.00
69306;BME280;56427;51.580;4.656;2023-03-22T14:19:07;100536.75;;;11.18;100.00
69306;BME280;56427;51.580;4.656;2023-03-22T14:21:41;100527.88;;;11.11;100.00
69306;BME280;56427;51.580;4.656;2023-03-22T14:24:12;100529.22;;;11.15;100.00
69306;BME280;56427;51.580;4.656;2023-03-22T14:26:45;100521.16;;;11.18;100.00